createdAt,value
2022-10-30T00:01:06.654Z,6.85
2022-10-30T00:03:33.389Z,6.79
2022-10-30T00:06:04.293Z,6.78
2022-10-30T00:08:31.125Z,6.75
2022-10-30T00:10:58.078Z,6.78
2022-10-30T00:13:25.956Z,6.69
2022-10-30T00:15:54.076Z,6.64
2022-10-30T00:18:21.164Z,6.14
2022-10-30T00:20:48.722Z,6.13
2022-10-30T00:23:15.755Z,6.39
2022-10-30T00:25:42.499Z,6.50
2022-10-30T00:28:09.203Z,6.64
2022-10-30T00:30:36.267Z,6.83
2022-10-30T00:33:03.515Z,6.97
2022-10-30T00:35:30.862Z,7.10
2022-10-30T00:37:57.934Z,7.21
2022-10-30T00:40:25.032Z,7.30
2022-10-30T00:42:52.078Z,7.38
2022-10-30T00:45:19.148Z,7.46
2022-10-30T00:47:59.591Z,7.56
2022-10-30T00:50:31.868Z,7.54
2022-10-30T00:53:12.032Z,7.55
2022-10-30T00:55:49.640Z,7.59
2022-10-30T00:58:21.224Z,7.54
2022-10-30T01:00:52.495Z,7.49
2022-10-30T01:03:22.116Z,7.47
2022-10-30T01:05:55.062Z,7.38
2022-10-30T01:08:21.966Z,7.33
2022-10-30T01:10:49.773Z,7.33
2022-10-30T01:13:23.153Z,7.30
2022-10-30T01:15:58.760Z,7.23
2022-10-30T01:18:49.646Z,7.17
2022-10-30T01:21:40.737Z,7.16
2022-10-30T01:24:18.987Z,7.16
2022-10-30T01:27:07.160Z,7.28
2022-10-30T01:29:45.672Z,7.35
2022-10-30T01:32:41.420Z,7.32
2022-10-30T01:35:37.199Z,7.26
2022-10-30T01:38:21.879Z,7.23
2022-10-30T01:40:48.660Z,7.07
2022-10-30T01:43:15.463Z,6.68
2022-10-30T01:45:51.202Z,6.63
2022-10-30T01:48:53.196Z,6.66
2022-10-30T01:51:28.948Z,6.63
2022-10-30T01:54:30.898Z,6.44
2022-10-30T01:57:27.139Z,6.39
2022-10-30T02:00:07.930Z,6.44
2022-10-30T02:02:35.412Z,6.43
2022-10-30T02:05:03.230Z,6.46
2022-10-30T02:07:31.309Z,6.45
2022-10-30T02:09:58.218Z,6.28
2022-10-30T02:12:25.214Z,6.05
2022-10-30T02:14:56.075Z,6.03
2022-10-30T02:17:23.230Z,6.04
2022-10-30T02:19:50.440Z,6.02
2022-10-30T02:22:17.926Z,5.93
2022-10-30T02:24:45.757Z,5.77
2022-10-30T02:27:12.536Z,5.69
2022-10-30T02:29:39.358Z,5.77
2022-10-30T02:32:06.213Z,5.68
2022-10-30T02:34:33.042Z,5.65
2022-10-30T02:36:59.854Z,5.84
2022-10-30T02:39:26.730Z,6.01
2022-10-30T02:41:53.557Z,6.05
2022-10-30T02:44:20.367Z,5.98
2022-10-30T02:46:47.141Z,5.91
2022-10-30T02:49:14.321Z,6.08
2022-10-30T02:51:41.800Z,6.19
2022-10-30T02:54:08.679Z,5.95
2022-10-30T02:56:35.426Z,5.75
2022-10-30T02:59:02.909Z,5.45
2022-10-30T03:01:29.958Z,5.38
2022-10-30T03:03:56.869Z,5.28
2022-10-30T03:06:23.916Z,5.08
2022-10-30T03:08:51.269Z,5.17
2022-10-30T03:11:19.907Z,5.33
2022-10-30T03:13:47.925Z,5.48
2022-10-30T03:16:18.016Z,5.48
2022-10-30T03:18:45.242Z,5.61
2022-10-30T03:21:15.065Z,5.78
2022-10-30T03:23:42.332Z,5.92
2022-10-30T03:26:09.649Z,6.00
2022-10-30T03:28:36.804Z,6.18
2022-10-30T03:31:06.385Z,6.23
2022-10-30T03:33:34.283Z,6.05
2022-10-30T03:36:02.932Z,5.89
2022-10-30T03:38:29.884Z,5.49
2022-10-30T03:40:56.721Z,5.49
2022-10-30T03:43:23.541Z,5.37
2022-10-30T03:45:54.452Z,5.29
2022-10-30T03:48:23.846Z,5.13
2022-10-30T03:50:53.407Z,5.43
2022-10-30T03:53:20.385Z,5.54
2022-10-30T03:55:47.248Z,5.60
2022-10-30T03:58:14.016Z,5.62
2022-10-30T04:00:41.021Z,5.70
2022-10-30T04:03:09.360Z,5.60
2022-10-30T04:05:37.159Z,5.61
2022-10-30T04:08:09.811Z,5.55
2022-10-30T04:10:36.832Z,5.36
2022-10-30T04:13:06.897Z,5.21
2022-10-30T04:15:38.093Z,5.31
2022-10-30T04:18:05.129Z,5.59
2022-10-30T04:20:32.550Z,5.61
2022-10-30T04:23:03.099Z,5.56
2022-10-30T04:25:31.252Z,5.75
2022-10-30T04:27:58.289Z,6.31
2022-10-30T04:30:25.953Z,7.06
2022-10-30T04:32:57.508Z,7.80
2022-10-30T04:35:28.523Z,8.11
2022-10-30T04:37:59.923Z,8.36
2022-10-30T04:40:29.515Z,8.23
2022-10-30T04:42:57.051Z,7.86
2022-10-30T04:45:24.779Z,7.70
2022-10-30T04:47:52.171Z,7.56
2022-10-30T04:50:19.387Z,7.62
2022-10-30T04:52:48.365Z,7.80
2022-10-30T04:55:15.294Z,7.94
2022-10-30T04:57:42.106Z,7.99
2022-10-30T05:00:09.722Z,8.04
2022-10-30T05:02:39.768Z,8.17
2022-10-30T05:05:06.822Z,8.24
2022-10-30T05:07:33.590Z,8.31
2022-10-30T05:10:00.531Z,8.29
2022-10-30T05:12:27.290Z,7.80
2022-10-30T05:14:54.073Z,7.32
2022-10-30T05:17:21.408Z,7.17
2022-10-30T05:19:48.259Z,7.21
2022-10-30T05:22:15.041Z,7.49
2022-10-30T05:24:41.863Z,7.74
2022-10-30T05:27:08.650Z,7.93
2022-10-30T05:29:35.328Z,8.10
2022-10-30T05:32:02.191Z,8.21
2022-10-30T05:34:31.790Z,8.28
2022-10-30T05:37:07.815Z,8.07
2022-10-30T05:39:36.643Z,7.76
2022-10-30T05:42:08.624Z,7.64
2022-10-30T05:44:59.874Z,7.52
2022-10-30T05:47:29.876Z,7.46
2022-10-30T05:49:56.767Z,7.77
2022-10-30T05:52:23.471Z,8.05
2022-10-30T05:54:52.991Z,8.10
2022-10-30T05:57:20.029Z,8.21
2022-10-30T05:59:46.928Z,8.50
2022-10-30T06:02:13.976Z,8.53
2022-10-30T06:04:40.868Z,8.37
2022-10-30T06:07:07.646Z,8.00
2022-10-30T06:09:34.386Z,8.27
2022-10-30T06:12:01.173Z,8.50
2022-10-30T06:14:28.002Z,8.90
2022-10-30T06:16:54.882Z,9.05
2022-10-30T06:19:21.686Z,9.19
2022-10-30T06:21:48.925Z,9.28
2022-10-30T06:24:15.710Z,9.32
2022-10-30T06:26:42.468Z,9.16
2022-10-30T06:29:09.186Z,8.95
2022-10-30T06:31:35.967Z,8.97
2022-10-30T06:34:02.951Z,9.18
2022-10-30T06:36:30.867Z,9.40
2022-10-30T06:38:57.636Z,9.65
2022-10-30T06:41:27.565Z,9.86
2022-10-30T06:43:57.269Z,9.89
2022-10-30T06:46:33.438Z,9.96
2022-10-30T06:49:00.758Z,10.30
2022-10-30T06:51:27.954Z,10.48
2022-10-30T06:53:54.960Z,10.35
2022-10-30T06:56:21.834Z,10.06
2022-10-30T06:58:48.843Z,9.56
2022-10-30T07:01:15.751Z,9.81
2022-10-30T07:03:42.450Z,10.17
2022-10-30T07:06:09.287Z,10.60
2022-10-30T07:08:37.482Z,10.79
2022-10-30T07:11:06.334Z,10.66
2022-10-30T07:13:35.871Z,10.43
2022-10-30T07:16:02.599Z,10.74
2022-10-30T07:18:29.382Z,10.52
2022-10-30T07:20:56.888Z,10.52
2022-10-30T07:23:24.045Z,10.48
2022-10-30T07:25:50.756Z,10.55
2022-10-30T07:28:17.625Z,10.59
2022-10-30T07:30:44.583Z,10.78
2022-10-30T07:33:11.361Z,10.99
2022-10-30T07:35:38.116Z,11.03
2022-10-30T07:38:06.836Z,11.14
2022-10-30T07:40:34.277Z,11.09
2022-10-30T07:43:03.442Z,11.07
2022-10-30T07:45:31.401Z,10.99
2022-10-30T07:47:58.406Z,11.14
2022-10-30T07:50:25.504Z,11.20
2022-10-30T07:52:54.945Z,11.30
2022-10-30T07:55:21.672Z,11.32
2022-10-30T07:57:51.684Z,11.30
2022-10-30T08:00:18.898Z,11.46
2022-10-30T08:02:49.578Z,11.81
2022-10-30T08:05:17.067Z,12.20
2022-10-30T08:07:47.090Z,11.94
2022-10-30T08:10:14.408Z,11.87
2022-10-30T08:12:41.150Z,12.02
2022-10-30T08:15:08.750Z,12.11
2022-10-30T08:17:42.626Z,12.35
2022-10-30T08:20:10.194Z,12.23
2022-10-30T08:22:45.324Z,12.33
2022-10-30T08:25:12.035Z,12.45
2022-10-30T08:27:38.734Z,12.82
2022-10-30T08:30:06.048Z,12.71
2022-10-30T08:32:32.747Z,12.60
2022-10-30T08:34:59.550Z,12.65
2022-10-30T08:37:28.358Z,12.57
2022-10-30T08:39:55.123Z,12.75
2022-10-30T08:42:21.793Z,12.94
2022-10-30T08:44:48.635Z,12.88
2022-10-30T08:47:15.416Z,13.20
2022-10-30T08:49:42.113Z,13.29
2022-10-30T08:52:09.551Z,13.30
2022-10-30T08:54:36.216Z,13.55
2022-10-30T08:57:03.208Z,13.61
2022-10-30T08:59:32.165Z,13.88
2022-10-30T09:01:59.128Z,14.28
2022-10-30T09:04:26.437Z,14.73
2022-10-30T09:06:53.225Z,14.58
2022-10-30T09:09:19.919Z,14.22
2022-10-30T09:11:48.221Z,13.99
2022-10-30T09:14:14.990Z,13.89
2022-10-30T09:16:41.726Z,14.32
2022-10-30T09:19:12.494Z,14.80
2022-10-30T09:21:41.610Z,14.47
2022-10-30T09:24:11.114Z,14.37
2022-10-30T09:27:13.333Z,14.53
2022-10-30T09:29:40.038Z,14.83
2022-10-30T09:32:12.150Z,14.57
2022-10-30T09:34:39.132Z,14.67
2022-10-30T09:37:06.052Z,14.44
2022-10-30T09:39:32.841Z,14.67
2022-10-30T09:42:27.548Z,14.95
2022-10-30T09:45:23.369Z,15.20
2022-10-30T09:48:28.802Z,14.94
2022-10-30T09:51:31.095Z,14.84
2022-10-30T09:54:19.627Z,14.91
2022-10-30T09:56:59.403Z,15.39
2022-10-30T10:00:04.266Z,15.81
2022-10-30T10:02:31.069Z,15.41
2022-10-30T10:05:22.390Z,15.98
2022-10-30T10:07:52.636Z,16.16
2022-10-30T10:10:44.231Z,16.20
2022-10-30T10:13:37.220Z,16.06
2022-10-30T10:16:18.739Z,15.23
2022-10-30T10:19:12.861Z,15.47
2022-10-30T10:21:58.192Z,15.81
2022-10-30T10:24:33.674Z,16.41
2022-10-30T10:27:03.210Z,16.26
2022-10-30T10:29:53.340Z,15.72
2022-10-30T10:32:29.193Z,15.80
2022-10-30T10:35:23.714Z,15.86
2022-10-30T10:38:28.861Z,16.35
2022-10-30T10:41:37.392Z,17.35
2022-10-30T10:44:49.387Z,17.58
2022-10-30T10:47:34.457Z,17.03
2022-10-30T10:50:16.022Z,16.76
2022-10-30T10:52:54.691Z,16.33
2022-10-30T10:55:27.843Z,16.47
2022-10-30T10:58:00.077Z,16.65
2022-10-30T11:00:29.532Z,16.65
2022-10-30T11:03:07.318Z,15.91
2022-10-30T11:05:55.178Z,15.69
2022-10-30T11:08:28.688Z,15.79
2022-10-30T11:11:04.221Z,16.04
2022-10-30T11:13:38.303Z,16.46
2022-10-30T11:16:09.738Z,15.80
2022-10-30T11:18:36.809Z,15.55
2022-10-30T11:21:09.881Z,15.59
2022-10-30T11:23:39.653Z,15.80
2022-10-30T11:26:18.507Z,15.95
2022-10-30T11:29:14.190Z,16.13
2022-10-30T11:31:43.379Z,16.00
2022-10-30T11:34:19.180Z,15.90
2022-10-30T11:36:47.633Z,16.06
2022-10-30T11:39:32.323Z,15.70
2022-10-30T11:42:04.999Z,15.76
2022-10-30T11:44:36.020Z,15.93
2022-10-30T11:47:04.875Z,16.15
2022-10-30T11:49:52.619Z,16.56
2022-10-30T11:52:23.021Z,16.99
2022-10-30T11:54:56.294Z,16.99
2022-10-30T11:57:45.578Z,15.95
2022-10-30T12:00:24.524Z,15.88
2022-10-30T12:02:53.769Z,15.67
2022-10-30T12:05:44.878Z,15.91
2022-10-30T12:08:14.984Z,16.04
2022-10-30T12:10:54.467Z,16.24
2022-10-30T12:13:22.946Z,16.71
2022-10-30T12:16:03.324Z,17.19
2022-10-30T12:18:30.593Z,16.86
2022-10-30T12:20:58.748Z,17.17
2022-10-30T12:23:27.659Z,17.31
2022-10-30T12:26:10.871Z,16.83
2022-10-30T12:28:39.015Z,16.69
2022-10-30T12:31:32.453Z,16.75
2022-10-30T12:36:50.671Z,16.15
2022-10-30T12:39:32.497Z,16.06
2022-10-30T12:42:08.277Z,16.00
2022-10-30T12:44:42.389Z,15.85
2022-10-30T12:47:23.326Z,16.07
2022-10-30T12:50:03.190Z,16.16
2022-10-30T12:53:01.515Z,16.33
2022-10-30T12:55:43.550Z,16.68
2022-10-30T12:58:21.869Z,17.11
2022-10-30T13:00:56.253Z,17.17
2022-10-30T13:03:41.678Z,16.97
2022-10-30T13:06:17.615Z,16.43
2022-10-30T13:08:59.452Z,16.16
2022-10-30T13:12:23.458Z,16.36
2022-10-30T13:15:02.123Z,16.62
2022-10-30T13:17:29.761Z,16.51
2022-10-30T13:19:56.477Z,16.40
2022-10-30T13:22:31.151Z,16.23
2022-10-30T13:25:27.826Z,16.29
2022-10-30T13:28:05.316Z,16.38
2022-10-30T13:30:40.656Z,16.30
2022-10-30T13:33:29.101Z,16.29
2022-10-30T13:36:05.785Z,16.16
2022-10-30T13:39:02.416Z,16.18
2022-10-30T13:41:39.183Z,16.07
2022-10-30T13:44:21.081Z,15.99
2022-10-30T13:47:05.057Z,16.09
2022-10-30T13:49:37.793Z,15.87
2022-10-30T13:52:14.962Z,15.74
2022-10-30T13:54:59.830Z,15.78
2022-10-30T13:57:45.769Z,15.72
2022-10-30T14:00:24.887Z,15.58
2022-10-30T14:03:15.600Z,15.44
2022-10-30T14:06:12.864Z,15.54
2022-10-30T14:08:46.339Z,15.64
2022-10-30T14:11:14.105Z,15.74
2022-10-30T14:14:24.155Z,15.99
2022-10-30T14:17:15.034Z,16.28
2022-10-30T14:20:13.541Z,15.94
2022-10-30T14:22:41.327Z,15.99
2022-10-30T14:25:16.203Z,15.81
2022-10-30T14:27:43.087Z,15.69
2022-10-30T14:30:20.170Z,15.74
2022-10-30T14:32:51.935Z,15.71
2022-10-30T14:35:36.823Z,15.64
2022-10-30T14:38:22.999Z,15.53
2022-10-30T14:40:55.425Z,15.49
2022-10-30T14:43:36.644Z,15.43
2022-10-30T14:46:18.928Z,15.39
2022-10-30T14:48:59.510Z,15.32
2022-10-30T14:51:41.453Z,15.22
2022-10-30T14:54:18.661Z,15.17
2022-10-30T14:56:50.791Z,15.10
2022-10-30T14:59:17.591Z,15.02
2022-10-30T15:01:47.189Z,14.96
2022-10-30T15:04:39.795Z,14.88
2022-10-30T15:07:18.532Z,14.79
2022-10-30T15:09:52.508Z,14.71
2022-10-30T15:12:19.283Z,14.68
2022-10-30T15:14:54.674Z,14.65
2022-10-30T15:17:34.191Z,14.60
2022-10-30T15:20:05.748Z,14.58
2022-10-30T15:22:34.065Z,14.50
2022-10-30T15:25:03.587Z,14.43
2022-10-30T15:27:32.449Z,14.38
2022-10-30T15:30:02.150Z,14.23
2022-10-30T15:32:29.014Z,14.10
2022-10-30T15:35:02.527Z,14.09
2022-10-30T15:37:30.329Z,14.03
2022-10-30T15:40:18.002Z,13.94
2022-10-30T15:42:46.483Z,13.82
2022-10-30T15:45:19.496Z,13.80
2022-10-30T15:48:08.779Z,13.69
2022-10-30T15:50:39.028Z,13.60
2022-10-30T15:53:05.864Z,13.63
2022-10-30T15:55:38.494Z,13.58
2022-10-30T15:58:05.670Z,13.60
2022-10-30T16:00:37.977Z,13.61
2022-10-30T16:03:13.353Z,13.56
2022-10-30T16:05:40.217Z,13.41
2022-10-30T16:08:19.836Z,13.17
2022-10-30T16:10:47.689Z,13.00
2022-10-30T16:13:20.462Z,12.84
2022-10-30T16:15:47.955Z,12.58
2022-10-30T16:18:22.406Z,12.56
2022-10-30T16:20:52.378Z,12.40
2022-10-30T16:23:20.290Z,12.03
2022-10-30T16:25:52.241Z,11.78
2022-10-30T16:28:27.875Z,11.89
2022-10-30T16:30:57.190Z,11.88
2022-10-30T16:33:27.833Z,11.82
2022-10-30T16:35:56.070Z,11.75
2022-10-30T16:38:27.057Z,11.62
2022-10-30T16:40:54.171Z,11.19
2022-10-30T16:43:29.848Z,10.88
2022-10-30T16:46:15.022Z,11.00
2022-10-30T16:48:47.078Z,11.24
2022-10-30T16:51:18.942Z,11.40
2022-10-30T16:53:51.205Z,11.49
2022-10-30T16:56:29.855Z,11.59
2022-10-30T16:59:07.957Z,11.62
2022-10-30T17:01:35.704Z,11.72
2022-10-30T17:04:04.780Z,11.84
2022-10-30T17:06:45.599Z,11.83
2022-10-30T17:09:38.792Z,11.79
2022-10-30T17:12:28.072Z,11.76
2022-10-30T17:14:57.562Z,11.78
2022-10-30T17:17:26.289Z,11.75
2022-10-30T17:19:57.203Z,11.74
2022-10-30T17:22:25.655Z,11.54
2022-10-30T17:24:52.879Z,11.42
2022-10-30T17:28:00.690Z,11.38
2022-10-30T17:30:35.764Z,11.25
2022-10-30T17:33:22.584Z,11.26
2022-10-30T17:35:49.840Z,11.17
2022-10-30T17:38:16.608Z,11.09
2022-10-30T17:40:43.460Z,11.05
2022-10-30T17:43:13.614Z,10.96
2022-10-30T17:45:40.754Z,10.94
2022-10-30T17:48:17.490Z,10.95
2022-10-30T17:50:44.876Z,10.99
2022-10-30T17:53:20.400Z,11.02
2022-10-30T17:55:55.926Z,11.04
2022-10-30T17:58:23.758Z,11.07
2022-10-30T18:00:50.746Z,11.12
2022-10-30T18:03:20.643Z,11.10
2022-10-30T18:05:48.643Z,11.15
2022-10-30T18:08:15.373Z,11.22
2022-10-30T18:10:42.205Z,11.29
2022-10-30T18:13:12.391Z,11.32
2022-10-30T18:15:42.786Z,11.30
2022-10-30T18:18:11.065Z,11.26
2022-10-30T18:20:39.063Z,11.20
2022-10-30T18:23:46.351Z,11.28
2022-10-30T18:26:10.573Z,11.26
2022-10-30T18:28:37.314Z,11.18
2022-10-30T18:31:04.295Z,11.18
2022-10-30T18:33:31.176Z,11.21
2022-10-30T18:36:01.140Z,11.24
2022-10-30T18:38:27.835Z,11.26
2022-10-30T18:40:54.971Z,11.27
2022-10-30T18:43:21.721Z,11.20
2022-10-30T18:45:48.444Z,11.16
2022-10-30T18:48:16.344Z,11.12
2022-10-30T18:50:45.559Z,10.78
2022-10-30T18:53:19.148Z,10.85
2022-10-30T18:58:17.754Z,10.61
2022-10-30T19:01:10.659Z,10.59
2022-10-30T19:03:31.247Z,10.77
2022-10-30T19:05:58.110Z,10.47
2022-10-30T19:08:25.469Z,10.58
2022-10-30T19:13:21.895Z,10.74
2022-10-30T19:15:59.936Z,10.81
2022-10-30T19:18:28.025Z,10.79
2022-10-30T19:21:04.579Z,10.77
2022-10-30T19:23:33.701Z,10.74
2022-10-30T19:26:00.625Z,10.71
2022-10-30T19:28:27.464Z,10.55
2022-10-30T19:30:54.298Z,10.50
2022-10-30T19:33:23.252Z,10.51
2022-10-30T19:36:05.814Z,10.43
2022-10-30T19:38:33.627Z,10.41
2022-10-30T19:41:01.023Z,10.45
2022-10-30T19:43:27.830Z,10.40
2022-10-30T19:45:57.282Z,10.20
2022-10-30T19:48:47.789Z,10.14
2022-10-30T19:51:12.248Z,10.10
2022-10-30T19:53:39.821Z,10.15
2022-10-30T19:56:07.208Z,10.10
2022-10-30T19:58:37.094Z,10.11
2022-10-30T20:01:03.982Z,10.12
2022-10-30T20:03:30.832Z,10.06
2022-10-30T20:05:57.634Z,10.13
2022-10-30T20:08:25.379Z,10.20
2022-10-30T20:10:54.818Z,9.98
2022-10-30T20:13:23.192Z,9.90
2022-10-30T20:15:54.195Z,9.87
2022-10-30T20:18:23.509Z,9.72
2022-10-30T20:20:55.783Z,9.76
2022-10-30T20:23:23.802Z,9.82
2022-10-30T20:25:55.140Z,9.78
2022-10-30T20:28:32.863Z,9.80
2022-10-30T20:31:00.062Z,9.77
2022-10-30T20:33:27.652Z,9.74
2022-10-30T20:35:55.626Z,9.70
2022-10-30T20:38:25.011Z,9.76
2022-10-30T20:40:52.757Z,9.77
2022-10-30T20:43:27.519Z,9.61
2022-10-30T20:45:54.301Z,9.54
2022-10-30T20:48:21.076Z,9.49
2022-10-30T20:50:50.614Z,9.33
2022-10-30T20:53:17.739Z,9.30
2022-10-30T20:55:45.633Z,9.34
2022-10-30T20:58:12.653Z,9.33
2022-10-30T21:00:39.973Z,9.26
2022-10-30T21:03:07.664Z,9.09
2022-10-30T21:05:45.180Z,8.98
2022-10-30T21:08:13.864Z,8.94
2022-10-30T21:10:41.440Z,8.98
2022-10-30T21:13:09.651Z,9.06
2022-10-30T21:15:44.264Z,9.03
2022-10-30T21:18:12.668Z,8.97
2022-10-30T21:20:39.921Z,8.91
2022-10-30T21:23:07.247Z,8.93
2022-10-30T21:25:34.130Z,8.89
2022-10-30T21:28:01.267Z,8.32
2022-10-30T21:30:28.811Z,8.36
2022-10-30T21:32:55.535Z,8.57
2022-10-30T21:35:22.283Z,8.71
2022-10-30T21:37:49.188Z,8.79
2022-10-30T21:40:15.990Z,8.80
2022-10-30T21:42:42.798Z,8.81
2022-10-30T21:45:10.371Z,8.79
2022-10-30T21:47:37.142Z,8.84
2022-10-30T21:50:07.842Z,8.89
2022-10-30T21:52:37.637Z,8.95
2022-10-30T21:55:04.763Z,8.98
2022-10-30T21:57:31.435Z,8.95
2022-10-30T22:00:00.174Z,8.98
2022-10-30T22:02:30.262Z,8.97
2022-10-30T22:04:56.928Z,8.89
2022-10-30T22:07:23.912Z,8.94
2022-10-30T22:09:50.613Z,9.01
2022-10-30T22:12:17.349Z,9.04
2022-10-30T22:14:44.322Z,9.05
2022-10-30T22:17:11.094Z,9.05
2022-10-30T22:19:37.774Z,8.72
2022-10-30T22:22:04.544Z,8.70
2022-10-30T22:24:31.285Z,8.80
2022-10-30T22:26:58.000Z,8.85
2022-10-30T22:29:25.513Z,8.82
2022-10-30T22:31:52.279Z,8.87
2022-10-30T22:34:19.087Z,8.84
2022-10-30T22:36:45.844Z,8.84
2022-10-30T22:39:13.881Z,8.87
2022-10-30T22:41:40.832Z,8.81
2022-10-30T22:44:12.623Z,8.79
2022-10-30T22:46:39.779Z,8.82
2022-10-30T22:49:06.907Z,8.80
2022-10-30T22:51:35.823Z,8.45
2022-10-30T22:54:04.416Z,8.35
2022-10-30T22:56:33.226Z,8.25
2022-10-30T22:59:06.168Z,7.99
2022-10-30T23:01:34.704Z,8.01
2022-10-30T23:04:03.741Z,8.13
2022-10-30T23:06:32.415Z,8.20
2022-10-30T23:09:01.795Z,8.31
2022-10-30T23:11:29.448Z,8.40
2022-10-30T23:13:59.660Z,8.42
2022-10-30T23:16:27.071Z,8.46
2022-10-30T23:18:56.503Z,8.47
2022-10-30T23:21:25.261Z,8.49
2022-10-30T23:23:52.741Z,8.50
2022-10-30T23:26:25.096Z,8.48
2022-10-30T23:28:53.596Z,8.51
2022-10-30T23:31:24.674Z,8.34
2022-10-30T23:33:53.811Z,8.26
2022-10-30T23:36:21.219Z,8.36
2022-10-30T23:38:59.047Z,8.38
2022-10-30T23:41:28.164Z,8.37
2022-10-30T23:43:56.327Z,8.31
2022-10-30T23:46:23.787Z,8.23
2022-10-30T23:48:51.079Z,8.19
2022-10-30T23:51:20.554Z,8.20
2022-10-30T23:53:48.100Z,8.12
2022-10-30T23:56:15.360Z,8.14
2022-10-30T23:58:46.846Z,8.18
